Time;durP1;ratioP1;P1;durP2;ratioP2;P2;SDS_P1;SDS_P2;PMS_P1;PMS_P2;Temp;Humidity;BMP_temperature;BMP_pressure;BME280_temperature;BME280_humidity;BME280_pressure;Samples;Min_cycle;Max_cycle;Signal;HPM_P1;HPM_P2
2022/03/13 00:00:54;;;;;;;8.90;6.40;;;2.70;88.00;;;3.34;38.61;-19840.69;5093228;28;20283;-62
2022/03/13 00:03:24;;;;;;;7.80;5.90;;;2.60;88.50;;;3.41;38.35;-19843.09;5077348;28;20503;-61
2022/03/13 00:05:54;;;;;;;9.27;6.73;;;2.60;88.70;;;3.39;38.33;-19842.41;5093032;28;20225;-61
2022/03/13 00:08:26;;;;;;;7.83;6.57;;;2.60;88.90;;;3.47;38.30;-19844.97;5093182;28;20216;-59
2022/03/13 00:10:57;;;;;;;8.53;6.30;;;2.60;88.90;;;3.19;38.72;-19835.56;5092899;28;20718;-60
2022/03/13 00:13:30;;;;;;;9.37;6.20;;;2.60;89.00;;;3.40;38.35;-19842.72;5091581;28;20205;-60
2022/03/13 00:16:03;;;;;;;9.20;5.90;;;2.60;89.00;;;3.28;38.93;-19838.47;5093185;28;20208;-60
2022/03/13 00:18:32;;;;;;;9.37;6.47;;;2.60;89.30;;;3.19;39.37;-19835.38;5092872;28;20227;-62
2022/03/13 00:21:03;;;;;;;9.57;6.10;;;2.50;89.70;;;3.15;39.35;-19834.19;5092819;28;20242;-61
2022/03/13 00:23:32;;;;;;;8.23;6.07;;;2.50;89.90;;;3.12;39.52;-19833.00;5092737;28;20308;-60
2022/03/13 00:26:00;;;;;;;7.27;6.03;;;2.40;89.90;;;3.11;39.57;-19832.81;5092586;28;20223;-60
2022/03/13 00:28:28;;;;;;;10.07;6.30;;;2.40;90.00;;;3.14;39.13;-19833.69;5092358;28;20210;-60
2022/03/13 00:30:56;;;;;;;8.30;6.03;;;2.50;90.00;;;3.02;39.42;-19829.56;5093130;28;20294;-61
2022/03/13 00:33:25;;;;;;;9.10;6.27;;;2.40;90.00;;;3.16;39.18;-19834.34;5092509;28;20242;-60
2022/03/13 00:35:53;;;;;;;10.13;5.80;;;2.40;90.00;;;2.95;40.17;-19827.19;5092410;28;20231;-59
2022/03/13 00:38:25;;;;;;;8.30;6.37;;;2.30;90.30;;;2.88;40.34;-19824.97;5092448;28;20226;-60
2022/03/13 00:40:55;;;;;;;7.57;5.93;;;2.30;90.40;;;2.78;40.41;-19821.38;5092711;28;20275;-61
2022/03/13 00:43:25;;;;;;;7.37;5.63;;;2.20;90.50;;;2.98;39.70;-19828.19;5092389;28;20202;-61
2022/03/13 00:45:53;;;;;;;7.73;5.87;;;2.20;90.30;;;2.97;39.50;-19828.03;5092636;28;20230;-61
2022/03/13 00:48:22;;;;;;;6.83;5.67;;;2.20;90.20;;;3.02;39.46;-19829.56;5092361;28;20315;-61
2022/03/13 00:50:50;;;;;;;8.17;5.97;;;2.30;90.10;;;2.93;40.07;-19826.50;5092082;28;20236;-62
2022/03/13 00:53:18;;;;;;;8.13;6.20;;;2.20;90.40;;;2.84;40.51;-19823.41;5092384;28;20231;-61
2022/03/13 00:55:47;;;;;;;7.03;6.13;;;2.20;90.60;;;2.81;40.26;-19822.56;5092112;28;20224;-60
2022/03/13 00:58:15;;;;;;;7.17;5.80;;;2.10;90.50;;;2.75;40.60;-19820.34;5092530;28;20295;-60
2022/03/13 01:00:43;;;;;;;9.37;6.47;;;2.10;90.70;;;2.85;40.64;-19823.75;5092677;28;20294;-60
2022/03/13 01:03:31;;;;;;;8.83;5.63;;;2.10;90.90;;;2.71;40.53;-19818.97;5092353;28;20224;-60
2022/03/13 01:06:00;;;;;;;8.10;6.07;;;2.10;90.70;;;2.80;40.51;-19822.06;5091854;28;20303;-61
2022/03/13 01:08:29;;;;;;;7.77;5.87;;;2.00;90.70;;;2.66;40.75;-19817.25;5091060;28;20672;-61
2022/03/13 01:10:59;;;;;;;9.43;6.37;;;2.00;90.90;;;2.54;41.27;-19813.16;5092441;28;20216;-61
2022/03/13 01:13:29;;;;;;;9.37;5.90;;;1.90;91.10;;;2.54;41.83;-19813.16;5091184;28;20722;-63
2022/03/13 01:16:11;;;;;;;8.90;6.23;;;1.90;91.40;;;2.67;41.09;-19817.59;5092427;28;20295;-63
2022/03/13 01:18:44;;;;;;;9.20;6.03;;;1.90;91.20;;;2.49;41.30;-19811.78;5091652;28;20314;-61
2022/03/13 01:21:14;;;;;;;7.67;5.60;;;1.80;91.10;;;2.41;41.54;-19809.06;5091728;28;20306;-63
2022/03/13 01:24:03;;;;;;;10.87;6.17;;;1.80;91.20;;;2.45;41.71;-19810.25;5091402;28;20225;-61
2022/03/13 01:26:37;;;;;;;9.03;5.40;;;1.70;91.40;;;2.37;42.05;-19807.53;5091642;28;20219;-62
2022/03/13 01:29:10;;;;;;;8.10;6.13;;;1.70;91.60;;;2.31;41.86;-19805.47;5090820;28;20302;-60
2022/03/13 01:31:45;;;;;;;8.07;5.77;;;1.70;91.40;;;2.42;41.95;-19809.41;5091159;28;20283;-61
2022/03/13 01:34:38;;;;;;;7.63;6.23;;;1.70;91.60;;;2.28;41.94;-19804.59;5091586;28;20657;-59
2022/03/13 01:37:09;;;;;;;9.87;6.17;;;1.70;91.70;;;2.36;41.67;-19807.19;5091554;28;20290;-61
2022/03/13 01:39:37;;;;;;;7.07;5.40;;;1.60;91.40;;;2.34;41.38;-19806.66;5091035;28;20237;-60
2022/03/13 01:42:07;;;;;;;11.33;6.13;;;1.60;91.40;;;2.45;41.43;-19810.25;5091217;28;20380;-60
2022/03/13 01:44:36;;;;;;;8.63;6.30;;;1.60;91.40;;;2.27;42.20;-19804.28;5091607;28;20235;-60
2022/03/13 01:47:05;;;;;;;9.33;6.03;;;1.60;92.00;;;2.12;42.24;-19799.16;5091386;28;20295;-61
2022/03/13 01:49:33;;;;;;;9.20;6.00;;;1.50;91.80;;;2.30;41.42;-19805.28;5091122;28;20213;-62
2022/03/13 01:52:01;;;;;;;9.47;6.00;;;1.50;91.50;;;2.19;42.50;-19801.38;5089918;28;20232;-59
2022/03/13 01:54:31;;;;;;;7.57;5.40;;;1.50;91.90;;;2.22;42.31;-19802.56;5090626;28;20307;-60
2022/03/13 01:57:00;;;;;;;8.20;5.57;;;1.50;91.90;;;2.22;42.78;-19802.56;5090777;28;20231;-60
2022/03/13 01:59:30;;;;;;;7.83;6.00;;;1.50;92.20;;;2.15;42.74;-19800.00;5091141;28;20231;-60
2022/03/13 02:01:58;;;;;;;8.33;5.80;;;1.50;92.30;;;2.01;42.62;-19795.38;5091146;28;20310;-60
2022/03/13 02:04:30;;;;;;;6.60;5.70;;;1.40;92.10;;;1.97;43.08;-19794.00;5090858;28;20214;-61
2022/03/13 02:06:58;;;;;;;6.90;5.53;;;1.30;92.20;;;2.06;42.68;-19796.91;5091665;28;20180;-60
2022/03/13 02:09:28;;;;;;;9.87;6.20;;;1.30;92.10;;;1.90;42.93;-19791.44;5090067;28;20261;-59
2022/03/13 02:11:56;;;;;;;7.30;5.90;;;1.30;92.20;;;1.84;43.07;-19789.56;5090773;28;20234;-61
2022/03/13 02:14:24;;;;;;;8.60;6.07;;;1.20;92.40;;;1.93;43.06;-19792.66;5090638;28;20257;-61
2022/03/13 02:16:54;;;;;;;7.83;5.63;;;1.20;92.30;;;1.90;43.25;-19791.63;5090571;28;20748;-60
2022/03/13 02:19:23;;;;;;;8.70;6.23;;;1.20;92.60;;;2.06;43.31;-19796.91;5090795;28;20293;-60
2022/03/13 02:21:53;;;;;;;9.57;6.30;;;1.20;92.60;;;2.06;43.05;-19797.09;5091302;28;20299;-60
2022/03/13 02:24:26;;;;;;;8.37;6.00;;;1.30;92.70;;;1.93;43.98;-19792.47;5090489;28;20664;-61
2022/03/13 02:27:01;;;;;;;9.00;5.70;;;1.20;92.90;;;1.90;43.16;-19791.44;5090820;28;20220;-61
2022/03/13 02:29:31;;;;;;;8.73;6.10;;;1.20;92.60;;;1.94;43.75;-19792.81;5090811;28;20311;-61
2022/03/13 02:32:01;;;;;;;7.00;5.77;;;1.20;92.90;;;1.95;43.15;-19793.16;5090780;28;20227;-61
2022/03/13 02:34:30;;;;;;;9.27;6.30;;;1.20;92.70;;;1.94;43.47;-19793.00;5090385;28;20293;-60
2022/03/13 02:37:03;;;;;;;9.80;5.80;;;1.20;92.90;;;2.03;43.19;-19795.91;5091079;28;20652;-60
2022/03/13 02:39:38;;;;;;;7.33;5.97;;;1.20;92.80;;;2.03;44.16;-19796.06;5088266;28;20785;-60
2022/03/13 02:42:08;;;;;;;7.63;5.73;;;1.20;93.40;;;1.90;44.80;-19791.63;5094562;28;20732;-61
2022/03/13 02:44:37;;;;;;;7.77;6.00;;;1.20;93.40;;;1.78;44.59;-19787.34;5094379;28;20266;-60
2022/03/13 02:47:07;;;;;;;8.87;5.87;;;1.10;93.30;;;1.52;45.13;-19778.63;5094386;28;20769;-61
2022/03/13 02:49:37;;;;;;;7.77;5.97;;;1.00;93.50;;;1.32;46.12;-19771.63;5094399;28;20206;-60
2022/03/13 02:52:07;;;;;;;8.30;5.83;;;0.90;93.90;;;1.27;47.61;-19770.06;5095275;28;20207;-61
2022/03/13 02:54:36;;;;;;;8.23;5.90;;;0.70;94.70;;;1.28;47.29;-19770.41;5094417;28;20311;-62
2022/03/13 02:57:05;;;;;;;9.30;6.50;;;0.70;95.00;;;1.36;47.76;-19773.16;5094465;28;20257;-60
2022/03/13 02:59:33;;;;;;;9.50;6.07;;;0.60;95.10;;;1.45;47.16;-19776.25;5094228;28;20247;-62
2022/03/13 03:02:03;;;;;;;7.70;5.70;;;0.70;95.30;;;1.42;47.09;-19775.22;5094382;28;20251;-60
2022/03/13 03:04:31;;;;;;;9.57;6.53;;;0.70;95.00;;;1.37;46.65;-19773.50;5094010;28;20283;-61
2022/03/13 03:07:02;;;;;;;9.33;6.50;;;0.70;94.90;;;1.30;46.65;-19770.94;5095242;28;20298;-60
2022/03/13 03:09:33;;;;;;;10.97;6.33;;;0.70;94.70;;;1.29;46.88;-19770.59;5094093;28;20221;-61
2022/03/13 03:12:05;;;;;;;7.13;5.80;;;0.60;94.60;;;1.29;46.70;-19770.75;5094163;28;20241;-60
2022/03/13 03:14:35;;;;;;;9.17;6.47;;;0.60;94.80;;;1.26;47.26;-19769.75;5093948;28;20231;-61
2022/03/13 03:17:04;;;;;;;8.73;6.70;;;0.60;94.90;;;1.32;46.84;-19771.78;5094102;28;20315;-62
2022/03/13 03:19:32;;;;;;;8.53;6.30;;;0.60;94.90;;;1.44;46.75;-19775.88;5093592;28;20767;-61
2022/03/13 03:22:01;;;;;;;9.27;6.87;;;0.60;95.00;;;1.28;46.60;-19770.41;5094872;28;20229;-61
2022/03/13 03:24:29;;;;;;;8.90;6.57;;;0.60;94.80;;;1.39;46.22;-19774.19;5093427;28;20789;-60
2022/03/13 03:26:58;;;;;;;8.43;6.57;;;0.60;94.70;;;1.27;46.64;-19770.25;5093917;28;20252;-61
2022/03/13 03:29:29;;;;;;;10.13;6.67;;;0.60;94.90;;;1.25;46.70;-19769.41;5093625;28;20522;-60
2022/03/13 03:31:58;;;;;;;8.27;6.50;;;0.60;94.80;;;1.16;47.59;-19766.50;5093736;28;20293;-60
2022/03/13 03:34:28;;;;;;;8.40;6.23;;;0.50;95.20;;;1.16;47.56;-19766.50;5093449;28;20288;-60
2022/03/13 03:36:59;;;;;;;8.97;6.17;;;0.50;95.30;;;1.10;48.16;-19764.44;5093912;28;20320;-61
2022/03/13 03:39:31;;;;;;;8.43;5.63;;;0.40;95.40;;;1.00;47.92;-19760.84;5093509;28;20281;-61
2022/03/13 03:42:02;;;;;;;7.70;6.17;;;0.40;95.20;;;0.95;48.22;-19759.31;5093978;28;20250;-61
2022/03/13 03:44:31;;;;;;;9.80;6.90;;;0.40;95.60;;;0.88;48.28;-19756.75;5093293;28;20227;-61
2022/03/13 03:47:00;;;;;;;8.63;6.30;;;0.30;95.70;;;0.96;48.05;-19759.66;5093519;28;20219;-62
2022/03/13 03:49:28;;;;;;;8.20;6.37;;;0.30;95.70;;;0.96;48.38;-19759.66;5092915;28;20205;-59
2022/03/13 03:51:56;;;;;;;8.70;6.80;;;0.30;95.80;;;0.92;48.29;-19758.13;5093378;28;20242;-61
2022/03/13 03:54:24;;;;;;;9.43;6.60;;;0.30;95.70;;;1.06;47.73;-19763.06;5092892;28;20773;-61
2022/03/13 03:56:52;;;;;;;8.30;6.30;;;0.30;95.70;;;0.99;47.79;-19760.69;5093363;28;20317;-61
2022/03/13 03:59:20;;;;;;;7.63;6.33;;;0.30;95.60;;;0.90;48.38;-19757.44;5093060;28;20319;-61
2022/03/13 04:01:49;;;;;;;8.63;6.10;;;0.30;95.90;;;0.91;48.54;-19757.94;5092898;28;20224;-60
2022/03/13 04:04:18;;;;;;;8.30;6.13;;;0.30;95.80;;;0.85;48.90;-19755.72;5093425;28;20204;-60
2022/03/13 04:06:47;;;;;;;8.20;6.60;;;0.20;96.00;;;0.95;48.18;-19759.13;5092807;28;20301;-60
2022/03/13 04:09:15;;;;;;;8.47;6.27;;;0.20;95.90;;;1.14;48.13;-19765.63;5092799;28;20239;-61
2022/03/13 04:11:43;;;;;;;8.07;5.97;;;0.30;96.00;;;1.00;48.70;-19761.03;5092967;28;20737;-61
2022/03/13 04:14:12;;;;;;;9.43;6.27;;;0.30;96.10;;;0.89;49.17;-19757.09;5092822;28;20325;-60
2022/03/13 04:16:41;;;;;;;8.30;6.33;;;0.30;96.10;;;0.86;49.03;-19756.22;5092447;28;20772;-60
2022/03/13 04:19:10;;;;;;;7.50;6.10;;;0.20;96.30;;;0.84;49.29;-19755.56;5093449;28;20202;-61
2022/03/13 04:21:41;;;;;;;8.60;6.23;;;0.20;96.20;;;1.03;48.97;-19762.03;5092804;28;20650;-61
2022/03/13 04:24:11;;;;;;;9.53;6.30;;;0.20;96.30;;;0.95;49.08;-19759.13;5092785;28;20226;-60
2022/03/13 04:26:40;;;;;;;7.67;6.40;;;0.20;96.40;;;0.99;48.84;-19760.50;5092502;28;20238;-60
2022/03/13 04:29:09;;;;;;;11.37;6.03;;;0.20;96.40;;;0.84;49.77;-19755.56;5092457;28;20319;-60
2022/03/13 04:31:39;;;;;;;13.23;6.40;;;0.10;96.60;;;0.83;49.18;-19755.19;5092365;28;20583;-60
2022/03/13 04:34:17;;;;;;;8.53;6.53;;;0.10;96.60;;;0.86;50.30;-19756.22;5093246;28;20592;-61
2022/03/13 04:36:45;;;;;;;10.07;6.13;;;0.10;97.10;;;0.96;48.83;-19759.66;5092621;28;20298;-62
2022/03/13 04:39:14;;;;;;;7.47;6.30;;;0.10;96.90;;;0.83;48.94;-19755.03;5092317;28;20233;-61
2022/03/13 04:41:43;;;;;;;7.77;6.03;;;0.10;96.70;;;0.74;49.83;-19752.13;5092519;28;20255;-60
2022/03/13 04:44:13;;;;;;;8.53;6.10;;;0.00;97.00;;;0.49;51.93;-19743.41;5092133;28;20223;-61
2022/03/13 04:46:42;;;;;;;8.13;5.73;;;0.00;97.60;;;0.59;51.59;-19747.00;5091794;28;20216;-61
2022/03/13 04:49:11;;;;;;;10.33;6.50;;;-0.10;97.80;;;0.79;50.59;-19753.66;5092856;28;20634;-60
2022/03/13 04:51:40;;;;;;;9.40;6.77;;;-0.10;97.50;;;0.76;50.98;-19752.81;5092207;28;20228;-60
2022/03/13 04:54:09;;;;;;;8.57;6.10;;;0.00;97.60;;;0.51;51.07;-19744.25;5092061;28;20344;-60
2022/03/13 04:56:37;;;;;;;8.23;6.10;;;-0.10;97.50;;;0.45;51.67;-19742.03;5092009;28;20257;-60
2022/03/13 04:59:07;;;;;;;10.20;6.60;;;-0.10;97.90;;;0.33;51.90;-19738.09;5091759;28;20311;-60
2022/03/13 05:01:35;;;;;;;8.57;6.30;;;-0.20;97.90;;;0.25;52.47;-19735.38;5092022;28;20259;-60
2022/03/13 05:04:03;;;;;;;9.87;6.23;;;-0.30;98.00;;;0.18;53.74;-19732.81;5091354;28;20207;-59
2022/03/13 05:06:34;;;;;;;8.97;6.60;;;-0.40;98.70;;;0.42;53.08;-19741.19;5091273;28;20226;-61
2022/03/13 05:09:05;;;;;;;9.63;6.30;;;-0.40;98.90;;;0.61;51.55;-19747.50;5091727;28;20586;-61
2022/03/13 05:11:34;;;;;;;8.13;5.83;;;-0.30;98.40;;;0.65;51.06;-19749.06;5092091;28;20756;-61
2022/03/13 05:14:02;;;;;;;9.57;6.13;;;-0.20;98.00;;;0.65;51.17;-19748.88;5091827;28;20680;-59
2022/03/13 05:16:30;;;;;;;7.90;6.27;;;-0.20;98.00;;;0.76;50.40;-19752.81;5091609;28;20301;-59
2022/03/13 05:18:58;;;;;;;9.90;6.77;;;-0.10;97.70;;;0.81;49.63;-19754.34;5092182;28;20234;-60
2022/03/13 05:21:26;;;;;;;9.07;6.70;;;-0.10;97.50;;;0.78;49.44;-19753.50;5091792;28;20253;-59
2022/03/13 05:23:54;;;;;;;9.20;5.90;;;-0.10;97.30;;;0.50;50.43;-19743.91;5091394;28;20321;-61
2022/03/13 05:26:25;;;;;;;9.27;6.43;;;-0.10;97.50;;;0.32;51.90;-19737.59;5091609;28;20223;-59
2022/03/13 05:28:53;;;;;;;8.73;6.60;;;-0.20;97.90;;;0.18;52.90;-19732.81;5091475;28;20218;-60
2022/03/13 05:31:21;;;;;;;10.83;6.33;;;-0.30;98.50;;;0.19;52.84;-19733.16;5091331;28;20226;-60
2022/03/13 05:33:49;;;;;;;10.13;6.27;;;-0.40;98.60;;;0.26;51.61;-19735.53;5091545;28;20244;-61
2022/03/13 05:36:17;;;;;;;7.73;6.57;;;-0.40;98.20;;;0.35;50.85;-19738.78;5090861;28;20314;-61
2022/03/13 05:38:45;;;;;;;8.87;6.20;;;-0.40;97.80;;;0.49;50.37;-19743.56;5091124;28;20601;-61
2022/03/13 05:41:13;;;;;;;7.57;5.77;;;-0.30;98.00;;;0.47;49.88;-19742.91;5091187;28;20673;-61
2022/03/13 05:43:43;;;;;;;8.63;6.10;;;-0.30;97.60;;;0.73;49.32;-19751.63;5091109;28;20225;-60
2022/03/13 05:46:11;;;;;;;8.67;6.23;;;-0.20;97.40;;;0.70;49.43;-19750.75;5091543;28;20205;-60
2022/03/13 05:48:40;;;;;;;8.77;6.53;;;-0.10;97.40;;;0.61;49.69;-19747.50;5090755;28;20224;-60
2022/03/13 05:51:08;;;;;;;9.13;5.83;;;-0.10;97.30;;;0.64;50.20;-19748.53;5090830;28;20312;-60
2022/03/13 05:53:36;;;;;;;7.80;6.00;;;-0.10;97.30;;;0.70;49.27;-19750.59;5090685;28;20682;-59
2022/03/13 05:56:05;;;;;;;8.33;6.07;;;0.00;97.20;;;0.71;50.14;-19750.94;5090601;28;20661;-61
2022/03/13 05:58:33;;;;;;;8.07;6.07;;;0.00;97.60;;;0.66;49.87;-19749.22;5090408;28;20776;-60
2022/03/13 06:01:04;;;;;;;6.63;5.80;;;0.00;97.50;;;0.67;50.60;-19749.75;5091357;28;20205;-61
2022/03/13 06:03:33;;;;;;;10.57;6.77;;;0.00;97.60;;;0.80;49.38;-19754.19;5090738;28;20247;-61
2022/03/13 06:06:03;;;;;;;9.43;6.47;;;0.10;97.40;;;0.83;49.67;-19755.19;5090534;28;20691;-61
2022/03/13 06:08:33;;;;;;;7.50;6.00;;;0.10;97.40;;;0.91;49.14;-19757.78;5090518;28;20299;-61
2022/03/13 06:11:01;;;;;;;8.33;6.60;;;0.20;97.40;;;0.94;49.01;-19758.78;5090955;28;20727;-60
2022/03/13 06:13:29;;;;;;;10.43;7.30;;;0.20;97.20;;;0.94;49.30;-19758.78;5090807;28;20309;-60
2022/03/13 06:15:58;;;;;;;9.93;6.03;;;0.30;97.20;;;1.07;48.48;-19763.41;5090950;28;20298;-61
2022/03/13 06:18:28;;;;;;;9.10;6.60;;;0.30;96.90;;;1.23;48.28;-19768.88;5090324;28;20223;-60
2022/03/13 06:20:56;;;;;;;9.10;6.37;;;0.40;96.90;;;1.24;47.24;-19769.22;5090575;28;20313;-59
2022/03/13 06:23:24;;;;;;;9.70;7.00;;;0.60;96.30;;;1.34;47.20;-19772.31;5090792;28;20246;-61
2022/03/13 06:25:52;;;;;;;9.27;6.40;;;0.60;96.20;;;1.50;46.66;-19777.78;5090816;28;20303;-61
2022/03/13 06:28:21;;;;;;;9.77;7.20;;;0.70;96.10;;;1.50;46.05;-19777.94;5090525;28;20298;-60
2022/03/13 06:30:49;;;;;;;9.03;6.27;;;0.80;95.70;;;1.56;47.01;-19780.00;5090817;28;20207;-61
2022/03/13 06:33:17;;;;;;;7.53;6.07;;;0.90;96.10;;;1.81;46.15;-19788.38;5090564;28;20364;-60
2022/03/13 06:35:47;;;;;;;10.03;6.43;;;1.00;95.80;;;1.75;46.10;-19786.50;5090256;28;20234;-60
2022/03/13 06:38:15;;;;;;;8.00;6.37;;;1.10;95.50;;;1.84;45.98;-19789.41;5089539;28;20227;-61
2022/03/13 06:40:43;;;;;;;9.70;6.10;;;1.20;95.50;;;2.01;45.24;-19795.38;5090379;28;20230;-61
2022/03/13 06:43:11;;;;;;;9.07;6.17;;;1.30;95.30;;;2.15;44.92;-19800.16;5091073;28;20203;-61
2022/03/13 06:45:39;;;;;;;7.83;6.40;;;1.40;95.10;;;2.26;43.79;-19803.94;5090221;28;20306;-60
2022/03/13 06:48:07;;;;;;;9.13;5.83;;;1.50;94.50;;;2.40;44.12;-19808.72;5090159;28;20233;-61
2022/03/13 06:50:35;;;;;;;8.23;5.60;;;1.60;94.70;;;2.40;44.05;-19808.72;5089953;28;20223;-61
2022/03/13 06:53:04;;;;;;;9.17;5.90;;;1.70;94.60;;;2.57;43.87;-19814.19;5090561;28;20251;-62
2022/03/13 06:55:32;;;;;;;9.27;5.57;;;1.80;94.40;;;3.01;42.69;-19829.22;5090184;28;20290;-61
2022/03/13 06:58:00;;;;;;;7.80;5.73;;;2.00;94.10;;;3.33;42.05;-19840.19;5090419;28;20316;-61
2022/03/13 07:00:28;;;;;;;8.80;5.40;;;2.30;93.90;;;3.44;41.96;-19843.94;5090549;28;20318;-61
2022/03/13 07:02:56;;;;;;;8.40;6.20;;;2.50;94.10;;;3.42;41.56;-19843.25;5090428;28;20227;-61
2022/03/13 07:05:25;;;;;;;8.13;5.50;;;2.60;93.40;;;3.58;40.69;-19848.91;5090315;28;20225;-61
2022/03/13 07:07:54;;;;;;;8.70;5.80;;;2.70;92.80;;;3.62;40.95;-19850.25;5090039;28;20244;-61
2022/03/13 07:10:24;;;;;;;8.90;5.83;;;2.80;92.80;;;3.60;40.62;-19849.56;5089920;28;20720;-61
2022/03/13 07:12:55;;;;;;;6.60;5.63;;;2.90;92.70;;;3.64;41.34;-19850.94;5090807;28;20204;-60
2022/03/13 07:15:23;;;;;;;8.20;5.83;;;3.00;92.80;;;3.77;40.68;-19855.22;5090238;28;20259;-60
2022/03/13 07:17:51;;;;;;;7.13;5.57;;;3.10;92.50;;;4.01;39.60;-19863.25;5090224;28;20235;-60
2022/03/13 07:20:20;;;;;;;7.90;6.03;;;3.20;92.20;;;3.95;39.43;-19861.19;5089884;28;20233;-61
2022/03/13 07:22:48;;;;;;;8.47;5.63;;;3.20;91.80;;;4.17;39.66;-19868.88;5090200;28;20224;-60
2022/03/13 07:25:17;;;;;;;7.07;5.57;;;3.30;92.10;;;4.35;38.43;-19874.88;5090322;28;20753;-61
2022/03/13 07:27:46;;;;;;;8.67;6.23;;;3.50;91.50;;;4.44;38.33;-19877.94;5091873;28;20213;-60
2022/03/13 07:30:15;;;;;;;6.60;5.47;;;3.60;91.30;;;4.60;37.74;-19883.41;5093323;28;20284;-60
2022/03/13 07:32:45;;;;;;;6.73;5.67;;;3.70;90.90;;;4.68;37.69;-19886.16;5093250;28;20718;-60
2022/03/13 07:35:14;;;;;;;8.33;5.90;;;3.80;90.90;;;4.94;37.37;-19895.22;5093140;28;20737;-62
2022/03/13 07:37:42;;;;;;;7.53;5.70;;;4.00;90.80;;;5.05;37.24;-19898.81;5092722;28;20574;-60
2022/03/13 07:40:11;;;;;;;9.13;5.90;;;4.10;90.70;;;5.07;37.54;-19899.31;5094109;28;20232;-60
2022/03/13 07:42:39;;;;;;;7.17;5.73;;;4.20;90.90;;;5.21;37.16;-19904.09;5093332;28;20668;-61
2022/03/13 07:45:10;;;;;;;7.27;5.70;;;4.30;90.60;;;5.40;36.61;-19910.59;5093028;28;20811;-60
2022/03/13 07:47:38;;;;;;;6.53;5.70;;;4.40;90.40;;;5.49;36.39;-19913.66;5093092;28;20244;-60
2022/03/13 07:50:08;;;;;;;6.90;5.27;;;4.60;90.20;;;5.57;35.98;-19916.56;5093104;28;20706;-63
2022/03/13 07:52:36;;;;;;;9.17;6.37;;;4.60;90.00;;;5.66;35.41;-19919.47;5093323;28;20227;-60
2022/03/13 07:55:05;;;;;;;9.30;5.87;;;4.70;89.20;;;5.92;35.53;-19928.53;5093441;28;20256;-60
2022/03/13 07:57:33;;;;;;;7.60;5.33;;;4.80;89.40;;;5.93;35.73;-19928.88;5093088;28;20237;-60
2022/03/13 08:00:07;;;;;;;9.37;5.97;;;5.00;89.50;;;6.22;34.53;-19938.47;5092945;28;20225;-61
2022/03/13 08:02:36;;;;;;;9.10;5.80;;;5.10;88.40;;;6.28;34.77;-19940.69;5093706;28;20314;-60
2022/03/13 08:05:05;;;;;;;7.70;5.73;;;5.30;88.40;;;6.27;34.37;-19940.16;5092885;28;20262;-62
2022/03/13 08:07:34;;;;;;;6.93;5.67;;;5.30;87.60;;;6.49;34.53;-19947.69;5093275;28;20634;-60
2022/03/13 08:10:01;;;;;;;9.67;5.60;;;5.40;88.20;;;6.68;33.86;-19954.19;5093394;28;20199;-62
2022/03/13 08:12:29;;;;;;;7.00;6.10;;;5.60;86.80;;;6.72;33.47;-19955.72;5092993;28;20244;-61
2022/03/13 08:14:57;;;;;;;8.63;6.03;;;5.70;86.60;;;6.76;33.78;-19956.91;5092495;28;20707;-62
2022/03/13 08:17:25;;;;;;;8.50;5.87;;;5.80;86.60;;;6.69;33.54;-19954.53;5092703;28;20227;-60
2022/03/13 08:19:56;;;;;;;6.63;5.90;;;5.80;86.20;;;6.75;33.31;-19956.75;5092401;28;20224;-60
2022/03/13 08:22:24;;;;;;;6.90;5.97;;;5.80;85.70;;;6.86;33.47;-19960.50;5093446;28;20215;-61
2022/03/13 08:24:52;;;;;;;7.30;5.90;;;5.90;86.00;;;6.97;32.83;-19964.25;5093332;28;20202;-60
2022/03/13 08:27:20;;;;;;;7.03;5.63;;;6.00;85.30;;;7.07;33.22;-19967.69;5092460;28;20260;-61
2022/03/13 08:29:48;;;;;;;9.67;6.03;;;6.10;85.80;;;7.18;32.72;-19971.44;5092397;28;20221;-61
2022/03/13 08:32:17;;;;;;;8.10;5.90;;;6.20;85.10;;;7.19;32.97;-19971.78;5092563;28;20223;-60
2022/03/13 08:34:46;;;;;;;7.60;5.80;;;6.20;85.20;;;7.36;32.51;-19977.59;5092126;28;20229;-61
2022/03/13 08:37:15;;;;;;;7.70;5.90;;;6.30;85.00;;;7.49;32.36;-19981.88;5092717;28;20212;-60
2022/03/13 08:39:44;;;;;;;7.23;5.83;;;6.40;84.70;;;7.63;31.99;-19986.47;5092172;28;20228;-62
2022/03/13 08:42:12;;;;;;;9.53;5.97;;;6.50;84.20;;;7.62;32.26;-19986.31;5092187;28;20762;-61
2022/03/13 08:44:42;;;;;;;8.10;6.40;;;6.60;84.10;;;7.83;32.19;-19993.47;5091769;28;20249;-61
2022/03/13 08:47:10;;;;;;;8.13;6.10;;;6.70;84.30;;;7.93;31.81;-19996.72;5092102;28;20229;-61
2022/03/13 08:49:38;;;;;;;9.03;6.77;;;6.80;83.60;;;8.00;31.78;-19999.13;5091434;28;20239;-61
2022/03/13 08:52:07;;;;;;;8.13;6.03;;;6.90;83.50;;;8.16;31.41;-20004.75;5092554;28;20292;-61
2022/03/13 08:54:37;;;;;;;9.77;6.80;;;7.10;83.20;;;8.21;31.32;-20006.47;5091839;28;20230;-61
2022/03/13 08:57:05;;;;;;;8.23;6.10;;;7.10;82.80;;;8.36;30.73;-20011.59;5091669;28;20339;-60
2022/03/13 08:59:37;;;;;;;7.17;6.37;;;7.20;82.30;;;8.39;31.11;-20012.44;5091393;28;20305;-61
2022/03/13 09:02:06;;;;;;;7.23;6.20;;;7.30;82.30;;;8.51;30.69;-20016.56;5091663;28;20328;-61
2022/03/13 09:04:34;;;;;;;11.57;6.70;;;7.40;82.10;;;8.59;30.76;-20019.47;5091296;28;20568;-62
2022/03/13 09:07:02;;;;;;;6.67;5.90;;;7.50;82.00;;;8.71;30.88;-20023.38;5092389;28;20298;-61
2022/03/13 09:09:30;;;;;;;7.53;5.37;;;7.60;82.30;;;8.80;29.86;-20026.47;5091392;28;20230;-62
2022/03/13 09:12:07;;;;;;;9.43;6.47;;;7.70;81.30;;;8.76;30.42;-20024.94;5091350;28;20295;-61
2022/03/13 09:14:35;;;;;;;6.60;5.90;;;7.60;81.30;;;8.77;30.38;-20025.44;5091538;28;20232;-61
2022/03/13 09:17:04;;;;;;;8.73;6.20;;;7.70;81.30;;;8.86;30.41;-20028.50;5091783;28;20247;-61
2022/03/13 09:19:32;;;;;;;7.50;6.43;;;7.80;81.30;;;8.98;30.04;-20032.44;5091456;28;20294;-62
2022/03/13 09:22:00;;;;;;;9.27;6.17;;;7.90;81.20;;;9.11;29.90;-20036.88;5091770;28;20302;-61
2022/03/13 09:24:29;;;;;;;8.33;6.23;;;8.00;80.40;;;9.18;29.89;-20039.28;5091391;28;20310;-62
2022/03/13 09:26:57;;;;;;;7.83;6.20;;;8.00;81.50;;;9.22;29.99;-20040.81;5091429;28;20315;-60
2022/03/13 09:29:26;;;;;;;7.20;6.10;;;8.10;80.60;;;9.25;29.79;-20041.84;5090848;28;20743;-61
2022/03/13 09:31:56;;;;;;;8.70;6.13;;;8.10;80.20;;;9.40;29.55;-20046.97;5091201;28;20244;-61
2022/03/13 09:34:24;;;;;;;7.93;6.27;;;8.20;80.40;;;9.42;29.56;-20047.66;5091448;28;20215;-61
2022/03/13 09:36:52;;;;;;;8.30;6.80;;;8.30;80.10;;;9.64;29.29;-20055.00;5091594;28;20241;-60
2022/03/13 09:39:20;;;;;;;10.27;7.00;;;8.40;80.10;;;9.75;29.67;-20058.91;5091107;28;20247;-61
2022/03/13 09:41:48;;;;;;;8.97;6.40;;;8.50;80.40;;;9.79;29.45;-20060.28;5091012;28;20314;-61
2022/03/13 09:44:16;;;;;;;8.50;7.00;;;8.60;80.00;;;9.90;28.84;-20063.88;5091541;28;20259;-62
2022/03/13 09:46:46;;;;;;;7.23;6.40;;;8.70;79.20;;;9.81;29.07;-20060.97;5090665;28;20227;-60
2022/03/13 09:49:17;;;;;;;7.60;6.43;;;8.80;79.20;;;9.93;28.88;-20064.72;5090845;28;20188;-62
2022/03/13 09:51:45;;;;;;;8.13;6.43;;;8.80;78.90;;;9.96;28.85;-20065.75;5090812;28;20732;-61
2022/03/13 09:54:14;;;;;;;8.67;6.60;;;8.80;78.40;;;10.05;28.44;-20068.81;5090993;28;20302;-61
2022/03/13 09:56:42;;;;;;;8.77;6.93;;;8.90;78.10;;;10.12;28.69;-20071.41;5090749;28;20328;-61
2022/03/13 09:59:10;;;;;;;9.20;6.60;;;9.00;78.20;;;10.28;28.26;-20076.69;5090841;28;20240;-61
2022/03/13 10:01:38;;;;;;;8.47;6.73;;;9.10;77.50;;;10.26;28.55;-20076.00;5090607;28;20251;-61
2022/03/13 10:04:07;;;;;;;8.23;6.30;;;9.10;77.90;;;10.20;28.42;-20073.97;5091775;28;20226;-61
2022/03/13 10:07:04;;;;;;;9.23;6.00;;;9.10;78.10;;;10.41;28.47;-20081.13;5089867;28;20234;-62
2022/03/13 10:09:33;;;;;;;7.17;6.20;;;9.20;78.40;;;10.47;28.11;-20083.34;5089450;28;20728;-62
2022/03/13 10:12:11;;;;;;;8.30;6.80;;;9.30;77.60;;;10.45;29.01;-20082.50;5090282;28;21184;-60
2022/03/13 10:15:00;;;;;;;8.13;6.00;;;9.30;78.70;;;10.56;28.17;-20086.25;5090536;28;20229;-60
2022/03/13 10:17:31;;;;;;;8.13;6.90;;;9.40;77.50;;;10.81;27.96;-20094.97;5090260;28;20226;-62
2022/03/13 10:20:17;;;;;;;7.80;6.50;;;9.50;77.60;;;10.95;27.37;-20099.56;5090494;28;20302;-61
2022/03/13 10:22:47;;;;;;;7.93;6.70;;;9.70;76.50;;;10.89;27.70;-20097.69;5090643;28;20714;-61
2022/03/13 10:25:29;;;;;;;7.20;6.50;;;9.80;76.90;;;10.73;28.30;-20092.06;5091320;28;20271;-62
2022/03/13 10:28:13;;;;;;;8.00;6.23;;;9.70;77.20;;;10.89;27.45;-20097.69;5091390;28;20239;-61
2022/03/13 10:30:41;;;;;;;8.20;6.37;;;9.70;76.10;;;10.99;27.55;-20100.94;5090815;28;20330;-62
2022/03/13 10:33:10;;;;;;;7.00;6.30;;;9.80;76.60;;;11.16;27.42;-20106.56;5090883;28;20234;-61
2022/03/13 10:35:40;;;;;;;7.63;6.83;;;9.90;76.60;;;11.08;27.50;-20104.00;5090590;28;20311;-61